Time;durP1;ratioP1;P1;durP2;ratioP2;P2;SDS_P1;SDS_P2;PMS_P1;PMS_P2;Temp;Humidity;BMP_temperature;BMP_pressure;BME280_temperature;BME280_humidity;BME280_pressure;Samples;Min_cycle;Max_cycle;Signal;HPM_P1;HPM_P2
2024/03/20 00:00:38;;;;;;;9.30;6.97;;;;;;;10.50;99.06;154056.19;5062421;28;20477;-76
2024/03/20 00:03:05;;;;;;;7.03;6.33;;;;;;;10.46;99.50;154045.81;5058321;28;20454;-75
2024/03/20 00:05:32;;;;;;;9.63;6.80;;;;;;;10.49;99.33;154053.59;5063923;28;20817;-76
2024/03/20 00:08:00;;;;;;;6.73;6.00;;;;;;;10.45;99.80;154043.25;5064136;28;20881;-75
2024/03/20 00:10:27;;;;;;;7.10;6.13;;;;;;;10.43;99.27;154038.09;5051193;28;20434;-75
2024/03/20 00:12:54;;;;;;;7.27;6.57;;;;;;;10.41;99.04;154032.88;5043483;28;20472;-75
2024/03/20 00:15:20;;;;;;;8.33;7.03;;;;;;;10.35;98.99;154017.38;5063801;28;20437;-76
2024/03/20 00:17:49;;;;;;;9.20;8.13;;;;;;;10.32;99.90;154010.91;5051665;28;20438;-76
2024/03/20 00:20:15;;;;;;;7.40;6.37;;;;;;;10.26;99.83;153995.34;5068882;28;20519;-76
2024/03/20 00:22:42;;;;;;;8.70;7.07;;;;;;;10.25;100.00;153992.75;5063784;28;20452;-76
2024/03/20 00:25:10;;;;;;;7.47;6.77;;;;;;;10.24;99.91;153988.88;5063846;28;20550;-75
2024/03/20 00:27:36;;;;;;;7.93;7.13;;;;;;;10.23;100.00;153986.28;5064424;28;20469;-76
2024/03/20 00:30:04;;;;;;;9.10;6.60;;;;;;;10.21;99.72;153981.09;5024221;28;20484;-76
2024/03/20 00:32:30;;;;;;;8.07;7.27;;;;;;;10.19;99.50;153977.19;5069192;28;20442;-76
2024/03/20 00:34:57;;;;;;;7.60;6.90;;;;;;;10.16;99.32;153968.16;5063845;28;20453;-76
2024/03/20 00:37:23;;;;;;;7.87;7.07;;;;;;;10.15;99.35;153965.56;5067747;28;20535;-76
2024/03/20 00:39:50;;;;;;;8.57;7.40;;;;;;;10.15;99.57;153965.56;5060889;28;20478;-75
2024/03/20 00:42:17;;;;;;;8.13;6.73;;;;;;;10.13;99.88;153960.41;5066227;28;20489;-76
2024/03/20 00:44:44;;;;;;;7.90;6.50;;;;;;;10.14;100.00;153964.25;5060028;28;20470;-76
2024/03/20 00:47:11;;;;;;;11.80;7.10;;;;;;;10.09;100.00;153949.97;5050689;28;20445;-75
2024/03/20 00:49:37;;;;;;;8.43;7.27;;;;;;;10.06;100.00;153942.25;5064376;28;20453;-75
2024/03/20 00:52:04;;;;;;;9.10;7.80;;;;;;;10.03;100.00;153934.47;5066963;28;20497;-76
2024/03/20 00:54:31;;;;;;;8.30;6.83;;;;;;;9.99;100.00;153925.38;5060585;28;20442;-76
2024/03/20 00:56:58;;;;;;;8.87;7.83;;;;;;;9.96;100.00;153916.31;5062824;28;20821;-76
2024/03/20 00:59:25;;;;;;;8.40;7.20;;;;;;;9.94;100.00;153911.16;5061031;28;20980;-75
2024/03/20 01:01:52;;;;;;;7.93;6.90;;;;;;;9.94;100.00;153911.16;5063748;28;20496;-75
2024/03/20 01:04:18;;;;;;;8.37;7.50;;;;;;;9.89;100.00;153898.22;5065062;28;20438;-76
2024/03/20 01:06:45;;;;;;;9.23;8.23;;;;;;;9.78;100.00;153872.34;5044234;28;21432;-76
2024/03/20 01:09:11;;;;;;;9.37;8.10;;;;;;;9.71;100.00;153852.94;5051951;28;20442;-76
2024/03/20 01:11:38;;;;;;;8.90;7.70;;;;;;;9.65;100.00;153838.72;5057212;28;20503;-75
2024/03/20 01:14:04;;;;;;;10.27;8.40;;;;;;;9.57;100.00;153818.00;5053409;28;20485;-75
2024/03/20 01:16:33;;;;;;;9.63;8.20;;;;;;;9.54;100.00;153810.25;5062157;28;20556;-75
2024/03/20 01:19:00;;;;;;;9.57;7.70;;;;;;;9.49;100.00;153797.31;5060902;28;20430;-75
2024/03/20 01:21:26;;;;;;;11.17;9.27;;;;;;;9.43;100.00;153781.75;5049646;28;20445;-75
2024/03/20 01:23:53;;;;;;;9.53;8.17;;;;;;;9.38;100.00;153768.84;5061147;28;20454;-75
2024/03/20 01:26:21;;;;;;;10.53;8.40;;;;;;;9.35;100.00;153761.06;5065212;28;20485;-75
2024/03/20 01:28:48;;;;;;;10.40;8.47;;;;;;;9.34;100.00;153758.50;5064425;28;20443;-76
2024/03/20 01:31:15;;;;;;;10.90;8.80;;;;;;;9.28;100.00;153741.69;5048119;28;20453;-75
2024/03/20 01:33:42;;;;;;;11.27;8.93;;;;;;;9.23;100.00;153728.75;5063464;28;20450;-75
2024/03/20 01:36:09;;;;;;;8.90;7.93;;;;;;;9.20;100.00;153722.28;5065904;28;20446;-75
2024/03/20 01:38:35;;;;;;;11.43;8.73;;;;;;;9.19;100.00;153719.69;5043919;28;20442;-75
2024/03/20 01:41:02;;;;;;;11.53;8.93;;;;;;;9.15;100.00;153709.34;5061367;28;20542;-75
2024/03/20 01:43:29;;;;;;;11.47;8.90;;;;;;;9.10;100.00;153696.41;5023209;28;1105886;-75
2024/03/20 01:45:55;;;;;;;9.77;8.37;;;;;;;9.03;100.00;153678.28;5044265;28;20279;-75
2024/03/20 01:48:22;;;;;;;10.30;8.33;;;;;;;8.99;100.00;153669.25;5063869;28;20495;-75
2024/03/20 01:50:50;;;;;;;10.23;8.80;;;;;;;8.99;100.00;153667.97;5060764;28;20531;-75
2024/03/20 01:53:17;;;;;;;11.20;9.30;;;;;;;8.99;100.00;153667.97;5044240;28;20434;-75
2024/03/20 01:55:44;;;;;;;12.23;10.30;;;;;;;8.96;100.00;153660.19;5065166;28;20441;-75
2024/03/20 01:58:12;;;;;;;12.83;10.00;;;;;;;8.94;100.00;153656.34;5043442;28;20438;-75
2024/03/20 02:00:39;;;;;;;10.53;9.43;;;;;;;8.92;100.00;153651.13;5038151;28;20474;-75
2024/03/20 02:03:06;;;;;;;12.37;10.07;;;;;;;8.89;100.00;153642.13;5063189;28;20891;-75
2024/03/20 02:05:33;;;;;;;13.17;10.10;;;;;;;8.87;100.00;153638.22;5049427;28;20445;-75
2024/03/20 02:08:01;;;;;;;11.73;9.53;;;;;;;8.86;100.00;153635.66;5046689;28;20434;-75
2024/03/20 02:10:27;;;;;;;12.50;9.93;;;;;;;8.82;100.00;153623.97;5044450;28;20462;-75
2024/03/20 02:13:04;;;;;;;10.23;9.20;;;;;;;8.80;100.00;153620.13;5056566;28;21086;-75
2024/03/20 02:15:32;;;;;;;12.30;9.67;;;;;;;8.80;100.00;153618.81;5046155;28;20453;-75
2024/03/20 02:17:59;;;;;;;12.03;10.47;;;;;;;8.75;100.00;153607.19;5049769;28;20538;-75
2024/03/20 02:20:25;;;;;;;10.50;8.70;;;;;;;8.72;100.00;153599.44;5067885;28;20484;-74
2024/03/20 02:22:54;;;;;;;10.87;8.93;;;;;;;8.67;100.00;153585.22;5065835;28;20430;-75
2024/03/20 02:25:21;;;;;;;12.47;9.73;;;;;;;8.65;100.00;153580.03;5060774;28;21034;-75
2024/03/20 02:27:48;;;;;;;13.40;9.73;;;;;;;8.64;100.00;153577.44;5062027;28;20457;-75
2024/03/20 02:30:14;;;;;;;11.20;9.50;;;;;;;8.62;100.00;153573.59;5053094;28;20473;-75
2024/03/20 02:32:42;;;;;;;12.30;10.80;;;;;;;8.66;100.00;153582.66;5059683;28;20488;-75
2024/03/20 02:35:09;;;;;;;11.33;10.23;;;;;;;8.64;100.00;153577.44;5064143;28;20443;-75
2024/03/20 02:37:36;;;;;;;12.40;10.17;;;;;;;8.63;100.00;153574.88;5057592;28;21045;-75
2024/03/20 02:40:05;;;;;;;11.83;9.80;;;;;;;8.61;100.00;153569.69;5061392;28;20457;-75
2024/03/20 02:42:31;;;;;;;13.10;10.47;;;;;;;8.61;100.00;153569.69;5041175;28;20446;-75
2024/03/20 02:44:58;;;;;;;11.60;9.43;;;;;;;8.67;100.00;153585.22;5042480;28;20439;-75
2024/03/20 02:47:25;;;;;;;15.30;10.70;;;;;;;8.71;100.00;153595.56;5033103;28;20544;-75
2024/03/20 02:49:53;;;;;;;11.27;9.83;;;;;;;8.71;100.00;153596.81;5039211;28;20439;-75
2024/03/20 02:52:19;;;;;;;11.13;9.43;;;;;;;8.71;100.00;153595.56;5027439;28;21285;-75
2024/03/20 02:54:46;;;;;;;11.60;9.30;;;;;;;8.72;100.00;153598.13;5044771;28;20460;-75
2024/03/20 02:57:14;;;;;;;11.50;8.80;;;;;;;8.73;100.00;153600.72;5047784;28;20443;-75
2024/03/20 02:59:40;;;;;;;12.60;9.00;;;;;;;8.71;100.00;153595.56;5029938;28;20869;-75
2024/03/20 03:02:07;;;;;;;9.50;8.57;;;;;;;8.65;100.00;153581.34;5039416;28;20557;-75
2024/03/20 03:04:33;;;;;;;11.67;9.57;;;;;;;8.58;100.00;153564.53;5038994;28;20458;-75
2024/03/20 03:07:00;;;;;;;12.70;9.90;;;;;;;8.51;100.00;153545.13;5027765;28;20447;-75
2024/03/20 03:09:26;;;;;;;11.63;9.70;;;;;;;8.47;100.00;153536.06;5043253;28;20448;-75
2024/03/20 03:11:53;;;;;;;13.37;10.00;;;;;;;8.46;100.00;153533.53;5040075;28;20470;-76
2024/03/20 03:14:21;;;;;;;12.20;9.90;;;;;;;8.42;100.00;153523.16;5040220;28;20456;-75
2024/03/20 03:16:48;;;;;;;12.60;10.60;;;;;;;8.46;100.00;153533.53;5041912;28;20457;-75
2024/03/20 03:19:14;;;;;;;13.77;10.30;;;;;;;8.44;100.00;153527.06;5036308;28;20431;-75
2024/03/20 03:21:41;;;;;;;15.40;12.30;;;;;;;8.42;100.00;153521.84;5022934;28;20541;-75
2024/03/20 03:24:08;;;;;;;14.77;12.50;;;;;;;8.43;100.00;153525.75;5037376;28;20450;-75
2024/03/20 03:26:36;;;;;;;15.50;12.30;;;;;;;8.40;100.00;153516.69;5026537;28;20469;-75
2024/03/20 03:29:02;;;;;;;13.13;11.50;;;;;;;8.40;100.00;153518.00;5024829;28;20436;-75
2024/03/20 03:31:32;;;;;;;13.30;11.20;;;;;;;8.39;100.00;153515.38;5026914;28;20468;-75
2024/03/20 03:33:58;;;;;;;14.80;13.00;;;;;;;8.38;100.00;153512.84;5043604;28;20530;-75
2024/03/20 03:36:25;;;;;;;13.07;10.50;;;;;;;8.34;100.00;153502.47;5045712;28;20443;-75
2024/03/20 03:38:51;;;;;;;13.33;11.47;;;;;;;8.32;100.00;153497.31;5024332;28;20497;-75
2024/03/20 03:41:18;;;;;;;13.50;11.40;;;;;;;8.31;100.00;153494.72;5040354;28;20482;-75
2024/03/20 03:43:44;;;;;;;16.53;12.67;;;;;;;8.29;100.00;153489.56;5041898;28;20469;-75
2024/03/20 03:46:11;;;;;;;14.63;12.40;;;;;;;8.28;100.00;153487.00;5043832;28;20450;-75
2024/03/20 03:48:39;;;;;;;15.67;12.57;;;;;;;8.28;100.00;153487.00;5042625;28;20450;-75
2024/03/20 03:51:06;;;;;;;13.73;12.23;;;;;;;8.27;100.00;153484.41;5010212;28;20504;-75
2024/03/20 03:53:33;;;;;;;16.67;13.20;;;;;;;8.25;100.00;153479.19;5042659;28;20454;-75
2024/03/20 03:56:00;;;;;;;14.03;12.57;;;;;;;8.24;100.00;153475.28;5031003;28;20526;-75
2024/03/20 03:58:26;;;;;;;16.87;13.07;;;;;;;8.22;100.00;153470.13;5042484;28;20463;-75
2024/03/20 04:00:53;;;;;;;19.37;13.20;;;;;;;8.23;100.00;153474.03;5046181;28;20478;-75
2024/03/20 04:03:23;;;;;;;16.77;13.47;;;;;;;8.21;100.00;153468.81;5035692;28;20497;-75
2024/03/20 04:05:51;;;;;;;16.23;12.40;;;;;;;8.20;100.00;153466.28;5042905;28;20443;-75
2024/03/20 04:08:19;;;;;;;17.20;13.77;;;;;;;8.19;100.00;153463.66;5041609;28;20439;-75
2024/03/20 04:10:45;;;;;;;19.40;14.20;;;;;;;8.19;100.00;153463.66;5045795;28;21051;-75
2024/03/20 04:13:12;;;;;;;16.50;14.17;;;;;;;8.21;100.00;153467.50;5024516;28;20422;-75
2024/03/20 04:15:38;;;;;;;15.33;12.83;;;;;;;8.19;100.00;153462.38;5025779;28;20470;-75
2024/03/20 04:18:05;;;;;;;18.77;13.93;;;;;;;8.18;100.00;153461.06;5026565;28;20438;-75
2024/03/20 04:20:31;;;;;;;15.50;13.70;;;;;;;8.16;100.00;153455.91;5045539;28;20478;-75
2024/03/20 04:22:59;;;;;;;17.93;14.17;;;;;;;8.11;100.00;153441.69;5036751;28;20456;-75
2024/03/20 04:25:28;;;;;;;13.97;12.33;;;;;;;8.09;100.00;153436.53;5024438;28;20451;-75
2024/03/20 04:27:56;;;;;;;15.10;13.50;;;;;;;8.10;100.00;153440.38;5051067;28;20439;-74
2024/03/20 04:30:22;;;;;;;17.50;14.00;;;;;;;8.08;100.00;153433.94;5043503;28;20981;-74
2024/03/20 04:32:49;;;;;;;13.60;11.80;;;;;;;8.09;100.00;153436.53;5034377;28;20447;-74
2024/03/20 04:35:15;;;;;;;14.87;12.30;;;;;;;8.11;100.00;153441.69;5010324;28;20443;-74
2024/03/20 04:37:42;;;;;;;14.20;12.70;;;;;;;8.08;100.00;153433.94;5056377;28;20434;-74
2024/03/20 04:40:11;;;;;;;17.00;13.60;;;;;;;8.07;100.00;153432.66;5031476;28;20957;-74
2024/03/20 04:42:37;;;;;;;13.67;11.80;;;;;;;8.06;100.00;153430.06;5042028;28;20439;-75
2024/03/20 04:45:05;;;;;;;13.33;11.37;;;;;;;8.04;100.00;153424.91;5045025;28;20442;-74
2024/03/20 04:47:31;;;;;;;15.53;13.93;;;;;;;8.04;100.00;153423.63;5045223;28;20495;-74
2024/03/20 04:49:58;;;;;;;13.67;12.20;;;;;;;8.04;100.00;153424.91;5029670;28;20929;-74
2024/03/20 04:52:25;;;;;;;12.97;11.43;;;;;;;8.06;100.00;153428.75;5038845;28;21000;-74
2024/03/20 04:54:51;;;;;;;14.33;12.80;;;;;;;8.07;100.00;153431.38;5048675;28;20434;-74
2024/03/20 04:57:19;;;;;;;13.97;12.50;;;;;;;8.03;100.00;153422.31;5048020;28;20445;-74
2024/03/20 04:59:45;;;;;;;14.53;12.33;;;;;;;8.03;100.00;153421.00;5051139;28;20486;-74
2024/03/20 05:02:12;;;;;;;14.27;11.87;;;;;;;8.06;100.00;153430.06;5044758;28;21310;-74
2024/03/20 05:04:38;;;;;;;14.40;11.93;;;;;;;8.05;100.00;153427.47;5028735;28;21141;-74
2024/03/20 05:07:05;;;;;;;16.80;12.53;;;;;;;8.01;100.00;153415.84;5050197;28;20462;-74
2024/03/20 05:09:31;;;;;;;16.97;13.20;;;;;;;7.96;100.00;153404.22;5039508;28;20483;-74
2024/03/20 05:11:58;;;;;;;12.30;10.73;;;;;;;7.97;100.00;153408.09;5043060;28;20451;-74
2024/03/20 05:14:26;;;;;;;14.00;11.03;;;;;;;7.98;100.00;153409.41;5046562;28;20814;-74
2024/03/20 05:16:52;;;;;;;13.10;11.60;;;;;;;7.88;100.00;153384.88;5028144;28;20490;-74
2024/03/20 05:19:19;;;;;;;13.00;11.33;;;;;;;7.87;100.00;153380.97;5046503;28;20794;-74
2024/03/20 05:21:45;;;;;;;15.40;12.40;;;;;;;7.87;100.00;153382.25;5037649;28;20526;-74
2024/03/20 05:24:11;;;;;;;14.90;11.50;;;;;;;7.85;100.00;153375.81;5042056;28;20862;-74
2024/03/20 05:26:37;;;;;;;13.67;10.80;;;;;;;7.80;100.00;153362.88;5043000;28;20607;-74
2024/03/20 05:29:03;;;;;;;14.50;12.00;;;;;;;7.82;100.00;153368.03;5050766;28;20439;-75
2024/03/20 05:31:30;;;;;;;12.43;9.67;;;;;;;7.81;100.00;153366.75;5049331;28;20201;-74
2024/03/20 05:33:57;;;;;;;12.53;9.93;;;;;;;7.86;100.00;153378.41;5049785;28;20476;-74
2024/03/20 05:36:23;;;;;;;12.37;11.07;;;;;;;7.81;100.00;153365.50;5022992;28;20457;-74
2024/03/20 05:38:50;;;;;;;13.13;11.13;;;;;;;7.81;100.00;153365.50;5033934;28;20833;-74
2024/03/20 05:41:15;;;;;;;11.83;10.47;;;;;;;7.84;100.00;153373.19;5034107;28;20218;-74
2024/03/20 05:43:42;;;;;;;12.50;11.20;;;;;;;7.87;100.00;153380.97;5018395;28;20493;-74
2024/03/20 05:46:09;;;;;;;12.20;10.57;;;;;;;7.86;100.00;153379.66;5046051;28;20201;-74
2024/03/20 05:48:37;;;;;;;10.80;9.67;;;;;;;7.90;100.00;153390.03;5028800;28;20457;-74
2024/03/20 05:51:03;;;;;;;12.73;11.43;;;;;;;7.95;100.00;153401.63;5042422;28;20435;-74
2024/03/20 05:53:29;;;;;;;15.97;11.00;;;;;;;7.96;100.00;153405.53;5047067;28;20529;-74
2024/03/20 05:55:55;;;;;;;11.50;9.83;;;;;;;7.95;100.00;153401.63;5045163;28;20541;-74
2024/03/20 05:58:21;;;;;;;11.80;9.93;;;;;;;7.96;100.00;153405.53;5030676;28;20431;-74
2024/03/20 06:00:48;;;;;;;11.73;10.23;;;;;;;7.98;100.00;153409.41;5032705;28;20226;-74
2024/03/20 06:03:15;;;;;;;14.30;11.90;;;;;;;7.98;100.00;153409.41;5046693;28;20813;-75
2024/03/20 06:05:42;;;;;;;12.77;10.60;;;;;;;7.99;100.00;153412.00;5042002;28;20467;-74
2024/03/20 06:08:09;;;;;;;13.40;10.50;;;;;;;8.02;100.00;153418.44;5044013;28;20454;-74
2024/03/20 06:10:35;;;;;;;11.47;10.27;;;;;;;8.04;100.00;153423.63;5039317;28;20997;-74
2024/03/20 06:13:17;;;;;;;10.97;9.43;;;;;;;8.06;100.00;153428.75;5031484;28;20546;-74
2024/03/20 06:15:43;;;;;;;13.57;10.10;;;;;;;8.09;100.00;153436.53;5028289;28;20670;-74
2024/03/20 06:18:10;;;;;;;13.43;11.40;;;;;;;8.13;100.00;153448.13;5027329;28;20462;-74
2024/03/20 06:20:35;;;;;;;11.20;9.90;;;;;;;8.19;100.00;153462.38;5041421;28;20217;-74
2024/03/20 06:23:03;;;;;;;12.10;9.70;;;;;;;8.25;100.00;153479.19;5044381;28;20912;-74
2024/03/20 06:25:29;;;;;;;12.40;11.10;;;;;;;8.34;100.00;153501.22;5043964;28;20271;-74
2024/03/20 06:27:55;;;;;;;12.20;10.87;;;;;;;8.45;100.00;153530.91;5026686;28;20451;-74
2024/03/20 06:30:23;;;;;;;14.17;11.23;;;;;;;8.62;100.00;153572.28;5041921;28;20704;-74
2024/03/20 06:32:50;;;;;;;13.73;11.53;;;;;;;8.85;100.00;153633.03;5046044;28;20950;-74
2024/03/20 06:35:16;;;;;;;12.80;10.53;;;;;;;9.14;100.00;153706.75;5042603;28;20456;-75
2024/03/20 06:37:42;;;;;;;11.57;10.27;;;;;;;9.43;100.00;153781.75;5043193;28;20488;-75
2024/03/20 06:40:11;;;;;;;13.10;10.00;;;;;;;9.67;100.00;153843.88;5044202;28;20451;-75
2024/03/20 06:42:37;;;;;;;12.83;10.10;;;;;;;9.95;100.00;153915.06;5030196;28;20877;-75
2024/03/20 06:45:05;;;;;;;11.40;9.30;;;;;;;10.25;100.00;153991.44;5024309;28;20451;-75
2024/03/20 06:47:31;;;;;;;10.23;9.13;;;;;;;10.52;100.00;154061.34;5043948;28;20498;-75
2024/03/20 06:49:57;;;;;;;11.40;9.10;;;;;;;10.75;100.00;154119.66;5045447;28;20553;-75
2024/03/20 06:52:24;;;;;;;12.43;8.70;;;;;;;10.93;100.00;154166.28;5027604;28;20553;-75
2024/03/20 06:54:50;;;;;;;10.70;9.60;;;;;;;11.05;100.00;154196.03;5018762;28;20450;-75
2024/03/20 06:57:19;;;;;;;9.93;8.30;;;;;;;11.16;100.00;154224.53;5031431;28;20449;-76
2024/03/20 06:59:45;;;;;;;10.20;8.70;;;;;;;11.27;100.00;154253.03;5043684;28;20451;-76
2024/03/20 07:02:11;;;;;;;10.83;9.40;;;;;;;11.43;100.00;154294.50;5020368;28;20537;-76
2024/03/20 07:04:37;;;;;;;10.17;9.13;;;;;;;11.53;100.00;154321.72;5044997;28;20485;-76
2024/03/20 07:07:04;;;;;;;11.20;9.60;;;;;;;11.67;100.00;154356.72;5045022;28;20459;-76
2024/03/20 07:09:31;;;;;;;10.03;9.00;;;;;;;11.77;99.53;154382.66;5025202;28;20600;-76
2024/03/20 07:11:58;;;;;;;9.57;8.63;;;;;;;11.87;99.02;154408.56;5040177;28;20455;-76
2024/03/20 07:14:27;;;;;;;9.60;8.23;;;;;;;11.95;98.67;154429.31;5044109;28;20960;-76
2024/03/20 07:16:53;;;;;;;9.90;8.47;;;;;;;12.10;97.69;154468.19;5044005;28;20455;-76
2024/03/20 07:19:19;;;;;;;8.50;7.60;;;;;;;12.25;97.43;154504.50;5027109;28;20570;-76
2024/03/20 07:21:49;;;;;;;7.97;6.40;;;;;;;12.45;96.70;154556.34;5034314;28;20985;-75
2024/03/20 07:24:15;;;;;;;7.83;6.83;;;;;;;12.57;95.12;154587.50;5025606;28;20936;-76
2024/03/20 07:26:41;;;;;;;8.50;7.63;;;;;;;12.63;94.38;154603.03;5043728;28;20458;-76
2024/03/20 07:29:09;;;;;;;8.40;7.10;;;;;;;12.73;93.59;154629.00;5038833;28;20517;-76
2024/03/20 07:31:38;;;;;;;8.63;6.73;;;;;;;12.81;93.24;154649.75;5043303;28;20485;-76
2024/03/20 07:34:05;;;;;;;6.77;6.07;;;;;;;12.96;93.18;154687.34;5021791;28;20458;-75
2024/03/20 07:36:33;;;;;;;8.70;6.77;;;;;;;13.10;92.76;154725.06;5028996;28;20545;-74
2024/03/20 07:38:59;;;;;;;7.23;6.50;;;;;;;13.30;93.00;154776.94;5042987;28;20984;-75
2024/03/20 07:41:26;;;;;;;7.47;6.67;;;;;;;13.54;91.55;154837.91;5036660;28;20480;-75
2024/03/20 07:43:51;;;;;;;6.90;6.13;;;;;;;13.81;90.46;154906.72;5044538;28;20486;-74
2024/03/20 07:46:18;;;;;;;7.00;6.27;;;;;;;14.08;88.91;154976.84;5045669;28;20845;-75
2024/03/20 07:48:45;;;;;;;7.93;6.30;;;;;;;14.27;86.95;155024.88;5044930;28;20974;-75
2024/03/20 07:51:12;;;;;;;7.37;6.03;;;;;;;14.35;85.72;155046.97;5046579;28;20846;-75
2024/03/20 07:53:38;;;;;;;8.60;5.77;;;;;;;14.48;84.96;155079.47;5043420;28;20470;-75
2024/03/20 07:56:05;;;;;;;7.43;6.10;;;;;;;14.68;84.59;155130.09;5038287;28;20957;-75
2024/03/20 07:58:31;;;;;;;6.20;5.60;;;;;;;14.88;83.17;155182.09;5045756;28;20209;-75
2024/03/20 08:00:58;;;;;;;6.23;5.03;;;;;;;15.08;82.31;155235.34;5045338;28;20462;-75
2024/03/20 08:03:24;;;;;;;7.87;5.63;;;;;;;15.24;80.90;155276.94;5028430;28;20458;-77
2024/03/20 08:05:52;;;;;;;5.47;4.90;;;;;;;15.35;79.52;155304.22;5025317;28;20528;-74
2024/03/20 08:08:18;;;;;;;5.50;5.10;;;;;;;15.45;78.20;155330.19;5059326;28;20451;-76
2024/03/20 08:10:45;;;;;;;4.90;4.40;;;;;;;15.51;76.97;155345.88;5022238;28;20818;-76
2024/03/20 08:13:10;;;;;;;4.57;4.10;;;;;;;15.54;76.50;155352.38;5042091;28;20534;-75
2024/03/20 08:15:39;;;;;;;4.60;4.10;;;;;;;15.62;73.83;155374.41;5043698;28;20849;-74
2024/03/20 08:18:05;;;;;;;4.10;3.70;;;;;;;15.71;73.75;155396.53;5043704;28;20210;-75
2024/03/20 08:20:33;;;;;;;6.27;5.13;;;;;;;15.64;75.44;155378.34;5052821;28;20580;-75
2024/03/20 08:23:00;;;;;;;4.03;3.63;;;;;;;15.61;74.31;155371.84;5020051;28;20541;-75
2024/03/20 08:25:27;;;;;;;5.00;4.10;;;;;;;15.76;71.78;155410.84;5037202;28;20498;-75
2024/03/20 08:27:52;;;;;;;4.37;3.90;;;;;;;15.80;70.70;155421.25;5030153;28;20469;-75
2024/03/20 08:30:19;;;;;;;3.40;3.10;;;;;;;15.80;65.18;155419.94;5022974;28;20452;-76
2024/03/20 08:32:44;;;;;;;3.37;2.97;;;;;;;15.92;65.06;155449.81;5028541;28;20209;-76
2024/03/20 08:35:12;;;;;;;4.23;3.83;;;;;;;16.04;67.69;155481.06;5047400;28;20451;-75
2024/03/20 08:37:39;;;;;;;3.90;3.57;;;;;;;16.07;68.45;155488.88;5046709;28;20565;-74
2024/03/20 08:40:09;;;;;;;3.83;3.53;;;;;;;16.02;64.92;155475.88;5047807;28;20458;-75
2024/03/20 08:42:35;;;;;;;5.40;4.10;;;;;;;16.15;62.95;155510.94;5062091;28;20466;-76
2024/03/20 08:45:02;;;;;;;4.60;3.93;;;;;;;16.29;62.17;155546.06;5046444;28;20470;-74
2024/03/20 08:47:28;;;;;;;5.27;3.70;;;;;;;16.26;61.54;155539.56;5046953;28;20214;-75
2024/03/20 08:49:55;;;;;;;3.67;3.30;;;;;;;16.31;59.55;155552.56;5045606;28;20457;-75
2024/03/20 08:52:21;;;;;;;4.47;3.53;;;;;;;16.20;58.57;155522.66;5045470;28;20485;-74
2024/03/20 08:54:49;;;;;;;4.70;4.23;;;;;;;16.18;61.70;155517.44;5059794;28;20539;-74
2024/03/20 08:57:16;;;;;;;4.23;3.50;;;;;;;16.11;60.85;155499.25;5046161;28;20446;-75
2024/03/20 08:59:43;;;;;;;3.60;3.30;;;;;;;16.12;60.30;155501.88;5046368;28;20492;-76
2024/03/20 09:02:09;;;;;;;3.83;2.93;;;;;;;16.12;61.73;155501.88;5006616;28;20518;-75
2024/03/20 09:04:36;;;;;;;4.23;2.90;;;;;;;16.09;60.23;155495.38;5046350;28;20613;-75
2024/03/20 09:07:01;;;;;;;3.90;3.50;;;;;;;16.11;58.45;155499.25;5037322;28;20627;-76
2024/03/20 09:09:28;;;;;;;4.20;3.00;;;;;;;16.10;57.21;155496.63;5068946;28;20460;-75
2024/03/20 09:11:54;;;;;;;4.47;4.03;;;;;;;16.05;57.87;155483.63;5068131;28;20210;-75
2024/03/20 09:14:22;;;;;;;4.00;3.60;;;;;;;16.05;58.35;155483.63;5059315;28;20465;-74
2024/03/20 09:16:50;;;;;;;4.70;4.30;;;;;;;16.03;59.72;155478.44;5042225;28;20233;-74
2024/03/20 09:19:17;;;;;;;4.33;3.90;;;;;;;16.00;59.83;155470.63;5047376;28;20507;-75
2024/03/20 09:21:43;;;;;;;5.17;4.63;;;;;;;16.04;60.65;155481.06;5065847;28;20478;-75
2024/03/20 09:24:14;;;;;;;5.10;4.43;;;;;;;16.05;61.34;155484.94;5066093;28;20902;-74
2024/03/20 09:26:39;;;;;;;4.80;4.10;;;;;;;16.10;61.66;155496.63;5040294;28;21074;-74
2024/03/20 09:29:06;;;;;;;5.00;4.60;;;;;;;16.12;60.85;155501.88;5064069;28;20457;-75
2024/03/20 09:31:33;;;;;;;6.33;5.43;;;;;;;16.01;60.50;155474.56;5066222;28;20696;-74
2024/03/20 09:34:00;;;;;;;5.80;4.70;;;;;;;15.92;62.33;155449.81;5067502;28;20452;-74
2024/03/20 09:36:25;;;;;;;6.10;4.20;;;;;;;15.99;62.72;155468.06;5056460;28;20980;-75
2024/03/20 09:38:52;;;;;;;11.27;4.90;;;;;;;15.99;61.12;155468.06;5041875;28;20480;-75
2024/03/20 09:41:21;;;;;;;4.87;4.27;;;;;;;16.03;61.48;155479.75;5066613;28;20213;-75
2024/03/20 09:43:52;;;;;;;5.00;3.97;;;;;;;16.08;61.01;155492.75;5061566;28;20504;-74
2024/03/20 09:46:19;;;;;;;6.43;4.83;;;;;;;16.14;62.15;155507.06;5066352;28;20462;-74
2024/03/20 09:48:49;;;;;;;5.13;4.67;;;;;;;16.18;60.48;155518.75;5066759;28;20460;-74
2024/03/20 09:51:17;;;;;;;6.13;4.60;;;;;;;16.14;61.76;155507.06;5047589;28;20457;-74
2024/03/20 09:53:44;;;;;;;5.00;4.53;;;;;;;16.12;60.28;155503.16;5056613;28;20527;-74
2024/03/20 09:56:10;;;;;;;7.30;4.57;;;;;;;16.07;61.04;155488.88;5040877;28;20464;-74
2024/03/20 09:58:37;;;;;;;4.30;3.90;;;;;;;16.09;61.32;155495.38;5043247;28;20457;-74
2024/03/20 10:01:04;;;;;;;4.63;4.23;;;;;;;16.07;60.56;155490.13;5053250;28;20620;-74
2024/03/20 10:03:31;;;;;;;4.53;3.67;;;;;;;15.98;59.85;155465.44;5046240;28;20478;-74
2024/03/20 10:05:58;;;;;;;4.50;4.10;;;;;;;15.92;60.76;155451.13;5066691;28;20515;-76
2024/03/20 10:08:24;;;;;;;4.90;4.07;;;;;;;16.04;61.47;155481.06;5032067;28;20458;-75
2024/03/20 10:10:53;;;;;;;5.10;4.30;;;;;;;16.12;62.17;155501.88;5031652;28;20464;-75
2024/03/20 10:13:21;;;;;;;4.43;3.33;;;;;;;16.26;63.15;155539.56;5054635;28;20447;-75
2024/03/20 10:15:47;;;;;;;3.80;3.17;;;;;;;16.17;59.17;155514.88;5046662;28;21021;-75
2024/03/20 10:18:17;;;;;;;3.90;3.60;;;;;;;16.23;57.66;155530.47;5047617;28;20473;-75
2024/03/20 10:20:43;;;;;;;5.20;4.07;;;;;;;16.18;57.56;155518.75;5065908;28;20453;-75
2024/03/20 10:23:16;;;;;;;5.20;3.57;;;;;;;16.23;58.84;155531.75;5051709;28;20470;-74
2024/03/20 10:25:41;;;;;;;3.30;2.90;;;;;;;16.27;59.51;155542.16;5065476;28;20232;-75
2024/03/20 10:28:13;;;;;;;4.00;3.47;;;;;;;16.25;58.51;155536.97;5048044;28;20458;-75
2024/03/20 10:30:39;;;;;;;2.50;2.10;;;;;;;16.27;56.52;155542.16;5064505;28;20213;-75
2024/03/20 10:33:07;;;;;;;3.33;2.73;;;;;;;16.41;56.59;155577.28;5047215;28;20473;-74
2024/03/20 10:35:35;;;;;;;3.67;2.40;;;;;;;16.46;60.06;155590.28;5064095;28;20209;-75
2024/03/20 10:38:02;;;;;;;3.50;3.10;;;;;;;16.51;57.73;155601.97;5063019;28;20562;-75
2024/03/20 10:40:30;;;;;;;4.67;3.20;;;;;;;16.50;56.80;155600.66;5047465;28;20450;-75
2024/03/20 10:42:56;;;;;;;3.47;2.90;;;;;;;16.58;55.36;155621.53;5064162;28;21005;-75
2024/03/20 10:45:22;;;;;;;6.27;3.20;;;;;;;16.65;56.27;155639.78;5064800;28;20920;-75
2024/03/20 10:47:49;;;;;;;4.40;3.30;;;;;;;16.69;55.28;155650.16;5037431;28;20548;-74
2024/03/20 10:50:16;;;;;;;2.77;2.43;;;;;;;16.73;52.68;155660.53;5064408;28;20940;-75
2024/03/20 10:52:43;;;;;;;3.13;2.37;;;;;;;16.70;53.05;155652.78;5062916;28;20449;-75
2024/03/20 10:55:10;;;;;;;3.53;3.03;;;;;;;16.77;54.60;155670.97;5039741;28;20508;-75
2024/03/20 10:57:38;;;;;;;2.53;2.30;;;;;;;16.81;54.44;155681.38;5064068;28;20442;-75
2024/03/20 11:00:09;;;;;;;3.27;2.60;;;;;;;16.77;53.09;155670.97;5064325;28;20486;-75
2024/03/20 11:02:35;;;;;;;2.50;2.30;;;;;;;16.81;52.95;155681.38;5045388;28;20458;-74
2024/03/20 11:05:01;;;;;;;3.13;2.70;;;;;;;16.81;53.24;155681.38;5046944;28;20468;-75
2024/03/20 11:07:35;;;;;;;2.67;2.07;;;;;;;16.85;54.37;155690.50;5058775;28;20944;-75
2024/03/20 11:10:17;;;;;;;4.10;2.07;;;;;;;16.86;52.99;155694.41;5063408;28;20255;-75
2024/03/20 11:12:45;;;;;;;2.83;2.00;;;;;;;16.82;52.62;155684.00;5062929;28;20442;-75
2024/03/20 11:15:14;;;;;;;2.63;2.30;;;;;;;16.90;51.12;155704.81;5056015;28;20454;-74